• Join FlightAware (Why Join?)
  • Login
  • US Flag 
02:25PM EST


 

Airport Tracker/Info


-or-


 

Live Flight TrackerFlight Track Log ✈ FDX1775 ✈ 08-May-2013 ✈ KCID - KMSN

Flight Track Log - Related Links

Times and Time Zones

All times are in EDT time to prevent confusion due to time zone crossing. See the FDX1775 flight status page for this flight to view local times or setup timezone preferences in your user account.

Time Position Orientation Groundspeed Altitude Reporting Facility
EDT Latitude Longitude Course Direction KTS MPH feet Rate Location/Type
06:32AM 41.9030 -91.6570 63° Northeast 229 264 3,000  Level FlightAware
06:32AM 41.9150 -91.6380 50° Northeast 251 289 3,700 3,600 Climbing FlightAware
06:32AM 41.9330 -91.6030 55° Northeast 266 306 5,400 4,020 Climbing FlightAware
06:33AM 41.9440 -91.5820 55° Northeast 271 312 6,400 4,200 Climbing FlightAware
06:33AM 41.9630 -91.5460 55° Northeast 284 327 8,200 3,240 Climbing FlightAware
06:34AM 41.9840 -91.5070 54° Northeast 289 333 9,400 1,920 Climbing FlightAware
06:34AM 42.0230 -91.4330 55° Northeast 310 357 10,600 1,680 Climbing FlightAware
06:35AM 42.0600 -91.3660 53° Northeast 366 421 11,800 2,460 Climbing FlightAware
06:36AM 42.1070 -91.2740 55° Northeast 391 450 14,100 3,120 Climbing FlightAware
06:36AM 42.1480 -91.1960 55° Northeast 396 456 16,300 3,120 Climbing FlightAware
06:37AM 42.1930 -91.1120 54° Northeast 416 479 18,300 2,820 Climbing FlightAware
06:38AM 42.2440 -91.0160 54° Northeast 431 496 20,300 2,220 Climbing FlightAware
06:39AM 42.2930 -90.9280 53° Northeast 443 510 21,500 1,800 Climbing FlightAware
06:39AM 42.3440 -90.8380 53° Northeast 453 521 22,700 1,020 Climbing FlightAware
06:40AM 42.3990 -90.7380 53° Northeast 454 522 23,000 180 Climbing FlightAware
06:41AM 42.4490 -90.6470 53° Northeast 452 520 23,000  Level FlightAware
06:41AM 42.5070 -90.5420 53° Northeast 451 519 23,000  Level FlightAware
06:42AM 42.5580 -90.4470 54° Northeast 450 518 23,000  Level FlightAware
06:43AM 42.6110 -90.3520 53° Northeast 449 517 23,000 -960 Level FlightAware
06:43AM 42.6620 -90.2590 53° Northeast 438 504 21,700 -2,520 Descending FlightAware
06:44AM 42.7150 -90.1610 54° Northeast 427 491 19,500 -3,000 Descending FlightAware
06:45AM 42.7620 -90.0750 53° Northeast 419 482 17,500 -3,000 Descending FlightAware
06:46AM 42.8080 -89.9870 55° Northeast 407 468 15,500 -2,880 Descending FlightAware
06:46AM 42.8560 -89.8990 53° Northeast 378 435 13,500 -2,700 Descending FlightAware
06:47AM 42.8970 -89.8220 54° Northeast 387 445 11,700 -2,220 Descending FlightAware
06:48AM 42.9600 -89.7540 38° Northeast 349 402 10,400 -1,320 Descending FlightAware
06:48AM 43.0120 -89.7300 19° North 283 326 9,900 -1,140 Descending FlightAware
06:49AM 43.0320 -89.7220 16° North 276 318 9,400 -2,400 Descending FlightAware
06:49AM 43.0620 -89.7090 18° North 271 312 8,300 -2,520 Descending FlightAware
06:50AM 43.0980 -89.6930 18° North 266 306 7,100 -2,220 Descending FlightAware
06:50AM 43.1310 -89.6780 18° North 265 305 6,100 -1,320 Descending FlightAware
06:50AM 43.1600 -89.6630 21° North 250 288 5,900 -240 Descending FlightAware
06:51AM 43.1930 -89.6470 19° North 249 287 5,900  Level FlightAware
06:51AM 43.2120 -89.6380 19° North 250 288 5,900  Level FlightAware
06:52AM 43.2390 -89.6250 19° North 250 288 5,900  Level FlightAware
06:52AM 43.2840 -89.6040 19° North 245 282 5,900  Level FlightAware
06:53AM 43.3090 -89.5910 21° North 229 264 5,900 -600 Level FlightAware
06:53AM 43.3250 -89.5690 45° Northeast 221 254 5,400 -960 Descending FlightAware
06:54AM 43.3340 -89.5140 77° East 223 257 4,900 -1,380 Descending FlightAware
06:54AM 43.3322 -89.4686 77° East 229 264 3,900 -1,320 Descending Chicago Center
06:55AM 43.2986 -89.3953 122° Southeast 231 266 3,000 -600 Descending Chicago Center
06:56AM 43.2611 -89.3431 135° Southeast 209 241 2,800 -360 Descending Chicago Center
06:57AM 43.2172 -89.3378 175° South 174 200 2,300 -600 Descending Chicago Center
06:58AM 43.1828 -89.3383 181° South 148 170 1,600 -720 Descending Chicago Center